Latest Weather Observations for Kalumburu

IDW60801

Issued at 12:02 pm WST Saturday 23 May 2015 (issued every 30 minutes, with the page automatically refreshed every 10 minutes)

About weather observations | Map of weather stations | Latest weather observations for WA | Other Formats
Station Details ID: 001019 Name: KALUMBURU Lat: -14.30 Lon: 126.65 Height: 23.0 m
Data from the previous 72 hours. | See also: Recent months at Kalumburu
Date/Time
WST
Temp
°C
App
Temp
°C
Dew
Point
Rel
Hum
%
Delta-T
°C
Wind Press
QNH
hPa
Press
MSL
hPa
Rain
since 9 am
mm
Dir
 
Spd
km/h
Gust
km/h
Spd
kts
Gust
kts
23/12:00pm 31.7 29.2 9.8 26 12.4 E 13 24 7 13 1014.9 1014.8 0.0
23/11:30am 31.7 29.2 9.8 26 12.4 ESE 13 22 7 12 1015.5 1015.4 0.0
23/11:00am 30.9 28.0 9.7 27 12.0 E 15 28 8 15 1016.0 1015.9 0.0
23/10:30am 30.6 27.7 9.5 27 11.9 E 15 20 8 11 1016.1 1016.0 0.0
23/10:00am 30.6 28.3 10.5 29 11.5 ENE 13 26 7 14 1016.5 1016.4 0.0
23/09:30am 29.5 26.1 9.1 28 11.3 ESE 17 28 9 15 1016.7 1016.6 0.0
23/09:00am 29.3 25.7 9.9 30 10.9 E 19 33 10 18 1016.9 1016.8 0.0
23/08:30am 28.2 24.4 9.0 30 10.6 ESE 19 32 10 17 1017.0 1016.9 0.0
23/08:00am 27.3 24.5 10.1 34 9.6 ESE 15 26 8 14 1017.1 1017.0 0.0
23/07:30am 25.9 23.1 10.1 37 8.8 SE 15 24 8 13 1016.9 1016.8 0.0
23/07:00am 24.2 23.7 12.5 48 6.7 SE 7 17 4 9 1016.7 1016.6 0.0
23/06:30am 22.2 23.2 14.3 61 4.6 S 2 6 1 3 1016.6 1016.5 0.0
23/06:00am 21.1 21.7 15.4 70 3.4 SW 6 9 3 5 1016.3 1016.2 0.0
23/05:30am 19.9 21.1 16.9 83 1.8 SSW 6 13 3 7 1015.9 1015.8 0.0
23/05:00am 18.9 21.1 16.5 86 1.4 CALM 0 6 0 3 1015.6 1015.5 0.0
23/04:30am 19.4 21.1 16.2 82 1.9 SW 2 7 1 4 1015.6 1015.5 0.0
23/04:00am 21.1 22.4 17.1 78 2.4 SSW 6 9 3 5 1015.4 1015.3 0.0
23/03:30am 21.7 22.2 17.5 77 2.6 SSW 11 17 6 9 1015.4 1015.3 0.0
23/03:00am 20.9 22.2 17.5 81 2.1 S 7 11 4 6 1015.2 1015.1 0.0
23/02:30am 21.6 22.8 18.2 81 2.1 SSW 9 13 5 7 1015.3 1015.2 0.0
23/02:00am 20.3 22.0 18.6 90 1.1 S 7 11 4 6 1015.3 1015.2 0.0
23/01:30am 19.4 22.0 17.5 89 1.2 CALM 0 0 0 0 1015.3 1015.2 0.0
23/01:00am 19.9 22.8 18.2 90 1.1 CALM 0 0 0 0 1015.3 1015.2 0.0
23/12:30am 20.0 22.6 18.3 90 1.1 SE 2 6 1 3 1015.5 1015.4 0.0
23/12:00am 19.8 22.5 17.8 88 1.2 CALM 0 0 0 0 1015.7 1015.6 0.0
 
Date/Time
WST
Temp
°C
App
Temp
°C
Dew
Point
Rel
Hum
%
Delta-T
°C
Wind Press
QNH
hPa
Press
MSL
hPa
Rain
since 9 am
mm
Dir
 
Spd
km/h
Gust
km/h
Spd
kts
Gust
kts
22/11:30pm 20.3 23.3 18.4 89 1.2 CALM 0 0 0 0 1015.8 1015.7 0.0
22/11:00pm 20.5 23.6 18.6 89 1.2 CALM 0 0 0 0 1015.6 1015.5 0.0
22/10:30pm 20.7 23.4 18.6 88 1.3 W 2 6 1 3 1015.7 1015.6 0.0
22/10:00pm 21.0 24.3 19.1 89 1.2 CALM 0 0 0 0 1015.9 1015.8 0.0
22/09:30pm 21.1 24.3 18.9 87 1.4 CALM 0 0 0 0 1015.9 1015.8 0.0
22/09:00pm 21.7 25.1 19.4 87 1.5 CALM 0 6 0 3 1015.9 1015.8 0.0
22/08:30pm 21.9 25.4 19.5 86 1.5 CALM 0 0 0 0 1015.8 1015.7 0.0
22/08:00pm 22.3 25.8 19.5 84 1.8 CALM 0 0 0 0 1015.7 1015.6 0.0
22/07:30pm 23.1 26.8 19.9 82 2.1 CALM 0 0 0 0 1015.6 1015.5 0.0
22/07:00pm 23.6 27.3 19.9 80 2.4 CALM 0 0 0 0 1015.2 1015.1 0.0
22/06:30pm 24.4 28.1 19.9 76 2.9 CALM 0 0 0 0 1015.0 1014.9 0.0
22/06:00pm 26.1 28.8 20.2 70 3.8 NW 6 6 3 3 1014.6 1014.5 0.0
22/05:30pm 27.2 29.7 20.3 66 4.5 NW 7 11 4 6 1014.3 1014.2 0.0
22/05:00pm 28.2 30.7 20.2 62 5.3 NW 7 11 4 6 1014.0 1013.9 0.0
22/04:30pm 29.5 30.9 19.5 55 6.5 NNW 11 19 6 10 1013.7 1013.6 0.0
22/04:00pm 30.0 30.1 18.4 49 7.5 NNW 15 22 8 12 1013.6 1013.5 0.0
22/03:30pm 30.7 30.5 18.4 47 7.9 NNW 17 26 9 14 1013.2 1013.1 0.0
22/03:00pm 31.6 30.4 17.5 43 9.0 N 20 32 11 17 1013.0 1012.9 0.0
22/02:30pm 32.8 32.2 16.6 38 10.3 N 15 22 8 12 1012.9 1012.8 0.0
22/02:00pm 33.6 33.0 14.6 31 11.7 ENE 11 20 6 11 1013.0 1012.9 0.0
22/01:30pm 33.8 32.3 14.3 31 12.0 ESE 15 24 8 13 1013.2 1013.1 0.0
22/01:00pm 34.2 33.0 14.1 29 12.3 NE 13 20 7 11 1013.5 1013.4 0.0
22/12:30pm 33.5 31.8 13.5 29 12.1 NE 15 28 8 15 1014.0 1013.9 0.0
22/12:00pm 33.6 32.8 14.1 30 11.9 ENE 11 24 6 13 1014.4 1014.3 0.0
22/11:30am 33.2 32.1 14.3 32 11.6 E 13 20 7 11 1014.9 1014.8 0.0
22/11:00am 33.0 32.7 15.5 35 10.9 ENE 11 24 6 13 1015.3 1015.2 0.0
22/10:30am 32.8 31.7 14.4 33 11.3 ESE 13 20 7 11 1015.6 1015.5 0.0
22/10:00am 31.7 30.3 14.4 35 10.5 ESE 15 22 8 12 1015.9 1015.8 0.0
22/09:30am 31.3 30.2 14.4 35 10.3 ESE 13 24 7 13 1016.4 1016.3 0.0
22/09:00am 29.4 30.6 19.1 54 6.7 S 11 17 6 9 1016.6 1016.5 0.0
22/08:30am 27.7 29.6 19.8 62 5.2 SSW 9 15 5 8 1016.5 1016.4 0.0
22/08:00am 25.8 28.2 20.1 71 3.7 S 7 11 4 6 1016.2 1016.1 0.0
22/07:30am 24.2 28.1 20.3 79 2.5 CALM 0 0 0 0 1016.3 1016.2 0.0
22/07:00am 22.4 25.4 20.9 91 1.0 SSW 6 9 3 5 1016.6 1016.5 0.0
22/06:30am 20.8 23.0 19.3 91 0.9 SSE 6 9 3 5 1016.3 1016.2 0.0
22/06:00am 20.0 22.9 18.3 90 1.1 CALM 0 0 0 0 1015.9 1015.8 0.0
22/05:30am 20.2 22.2 18.7 91 0.9 WSW 6 7 3 4 1015.8 1015.7 0.0
22/05:00am 19.9 21.7 18.4 91 0.9 SSE 6 11 3 6 1015.3 1015.2 0.0
22/04:30am 20.0 23.0 18.5 91 0.9 CALM 0 0 0 0 1014.8 1014.7 0.0
22/04:00am 19.6 21.1 17.7 89 1.2 SSW 6 7 3 4 1014.6 1014.5 0.0
22/03:30am 19.9 22.8 18.2 90 1.1 CALM 0 0 0 0 1014.4 1014.3 0.0
22/03:00am 20.1 23.1 18.4 90 1.1 CALM 0 0 0 0 1014.3 1014.2 0.0
22/02:30am 20.4 23.6 18.9 91 0.9 CALM 0 0 0 0 1014.4 1014.3 0.0
22/02:00am 20.2 22.5 18.5 90 1.1 NNE 4 9 2 5 1014.5 1014.4 0.0
22/01:30am 20.6 23.8 18.9 90 1.1 CALM 0 0 0 0 1014.7 1014.6 0.0
22/01:00am 20.4 23.4 18.5 89 1.2 CALM 0 0 0 0 1014.9 1014.8 0.0
22/12:30am 20.5 23.6 18.6 89 1.2 CALM 0 0 0 0 1015.3 1015.2 0.0
22/12:00am 20.5 23.6 18.6 89 1.2 CALM 0 0 0 0 1015.6 1015.5 0.0
 
Date/Time
WST
Temp
°C
App
Temp
°C
Dew
Point
Rel
Hum
%
Delta-T
°C
Wind Press
QNH
hPa
Press
MSL
hPa
Rain
since 9 am
mm
Dir
 
Spd
km/h
Gust
km/h
Spd
kts
Gust
kts
21/11:30pm 20.9 24.2 19.2 90 1.1 CALM 0 0 0 0 1015.6 1015.5 0.0
21/11:00pm 21.2 24.7 19.5 90 1.1 CALM 0 0 0 0 1015.5 1015.4 0.0
21/10:30pm 21.1 24.4 19.0 88 1.3 CALM 0 0 0 0 1015.8 1015.7 0.0
21/10:00pm 21.5 25.0 19.6 89 1.2 CALM 0 0 0 0 1015.6 1015.5 0.0
21/09:30pm 21.7 24.1 19.6 88 1.3 SE 6 7 3 4 1015.5 1015.4 0.0
21/09:00pm 21.8 24.1 19.5 87 1.5 ESE 6 6 3 3 1015.6 1015.5 0.0
21/08:30pm 22.3 25.6 20.0 87 1.5 ESE 2 6 1 3 1015.7 1015.6 0.0
21/08:00pm 22.7 26.3 19.7 83 1.9 CALM 0 0 0 0 1015.5 1015.4 0.0
21/07:30pm 23.7 27.5 20.2 81 2.3 CALM 0 0 0 0 1015.4 1015.3 0.0
21/07:00pm 24.7 27.9 20.6 78 2.7 N 4 7 2 4 1015.2 1015.1 0.0
21/06:30pm 25.6 28.7 20.2 72 3.5 NNW 4 6 2 3 1014.7 1014.6 0.0
21/06:00pm 26.7 29.5 20.8 70 3.9 NNW 7 13 4 7 1014.4 1014.3 0.0
21/05:30pm 27.2 29.1 20.5 67 4.4 NNW 11 15 6 8 1014.0 1013.9 0.0
21/05:00pm 27.8 29.0 19.8 61 5.2 NNW 13 19 7 10 1013.8 1013.7 0.0
21/04:30pm 29.4 30.2 19.1 54 6.7 NNW 13 19 7 10 1013.3 1013.2 0.0
21/04:00pm 30.8 31.2 18.2 47 8.1 NNW 13 20 7 11 1012.9 1012.8 0.0
21/03:30pm 31.5 30.5 16.6 40 9.4 NNW 17 26 9 14 1012.7 1012.6 0.0
21/03:00pm 32.2 30.3 15.7 37 10.3 N 20 32 11 17 1012.6 1012.5 0.0
21/02:30pm 33.3 31.8 15.3 34 11.2 NW 17 28 9 15 1012.2 1012.1 0.0
21/02:00pm 34.3 33.3 14.7 30 12.1 N 13 22 7 12 1012.3 1012.2 0.0
21/01:30pm 33.9 32.7 11.7 26 13.1 E 9 17 5 9 1012.5 1012.4 0.0
21/01:00pm 35.4 34.3 13.0 26 13.6 E 11 17 6 9 1012.7 1012.6 0.0
21/12:30pm 34.6 33.4 12.9 27 13.1 ENE 11 20 6 11 1013.1 1013.0 0.0
21/12:00pm 34.9 33.8 13.1 27 13.2 E 11 17 6 9 1013.6 1013.5 0.0
21/11:30am 35.3 35.6 15.1 30 12.6 ENE 7 17 4 9 1014.2 1014.1 0.0
21/11:00am 34.3 33.6 13.2 28 12.8 ESE 9 19 5 10 1014.6 1014.5 0.0
21/10:30am 33.5 34.2 15.5 34 11.2 S 6 11 3 6 1015.0 1014.9 0.0
21/10:00am 32.4 32.5 15.4 36 10.5 SSW 9 11 5 6 1015.5 1015.4 0.0
21/09:30am 30.9 32.2 17.2 43 8.7 SW 6 9 3 5 1015.8 1015.7 0.0
21/09:00am 29.7 31.6 18.5 51 7.2 SSW 6 9 3 5 1015.9 1015.8 0.0
21/08:30am 27.8 29.8 18.8 58 5.8 SW 6 9 3 5 1016.1 1016.0 0.0
21/08:00am 26.1 28.4 19.5 67 4.3 S 6 11 3 6 1016.0 1015.9 0.0
21/07:30am 24.2 25.8 19.1 73 3.3 S 9 13 5 7 1016.0 1015.9 0.0
21/07:00am 22.8 25.2 20.1 85 1.7 SSW 7 11 4 6 1015.9 1015.8 0.0
21/06:30am 19.8 21.6 18.3 91 0.9 NNW 6 7 3 4 1015.7 1015.6 0.0
21/06:00am 18.9 21.5 17.4 91 0.9 CALM 0 0 0 0 1015.3 1015.2 0.0
21/05:30am 19.2 21.9 17.7 91 0.9 CALM 0 0 0 0 1015.1 1015.0 0.0
21/05:00am 19.2 21.8 17.5 90 1.0 CALM 0 0 0 0 1014.9 1014.8 0.0
21/04:30am 19.7 22.5 18.0 90 1.0 CALM 0 0 0 0 1014.8 1014.7 0.0
21/04:00am 19.7 22.5 18.0 90 1.0 CALM 0 0 0 0 1014.7 1014.6 0.0
21/03:30am 19.8 22.7 18.1 90 1.1 CALM 0 0 0 0 1014.6 1014.5 0.0
21/03:00am 20.1 23.0 18.2 89 1.2 CALM 0 0 0 0 1014.6 1014.5 0.0
21/02:30am 20.4 23.3 18.3 88 1.3 CALM 0 0 0 0 1014.6 1014.5 0.0
21/02:00am 21.0 24.2 18.9 88 1.3 CALM 0 0 0 0 1014.9 1014.8 0.0
21/01:30am 21.2 24.4 18.9 87 1.4 CALM 0 0 0 0 1015.1 1015.0 0.0
21/01:00am 21.9 25.4 19.5 86 1.5 CALM 0 0 0 0 1015.4 1015.3 0.0
21/12:30am 22.7 26.5 20.2 86 1.6 CALM 0 0 0 0 1015.7 1015.6 0.0
21/12:00am 22.8 26.7 20.3 86 1.6 CALM 0 0 0 0 1015.9 1015.8 0.0
 
Date/Time
WST
Temp
°C
App
Temp
°C
Dew
Point
Rel
Hum
%
Delta-T
°C
Wind Press
QNH
hPa
Press
MSL
hPa
Rain
since 9 am
mm
Dir
 
Spd
km/h
Gust
km/h
Spd
kts
Gust
kts
20/11:30pm 22.7 26.6 20.4 87 1.5 CALM 0 0 0 0 1016.1 1016.0 0.0
20/11:00pm 22.4 26.2 20.1 87 1.5 CALM 0 0 0 0 1016.2 1016.1 0.0
20/10:30pm 22.8 26.7 20.3 86 1.6 CALM 0 0 0 0 1016.4 1016.3 0.0
20/10:00pm 22.8 26.6 20.1 85 1.7 CALM 0 0 0 0 1016.5 1016.4 0.0
20/09:30pm 22.9 26.6 19.9 83 1.9 CALM 0 0 0 0 1016.5 1016.4 0.0
20/09:00pm 23.4 27.5 20.7 85 1.8 CALM 0 0 0 0 1016.5 1016.4 0.0
20/08:30pm 24.0 28.1 20.7 82 2.2 CALM 0 0 0 0 1016.4 1016.3 0.0
20/08:00pm 24.7 28.7 20.6 78 2.7 CALM 0 0 0 0 1016.2 1016.1 0.0
20/07:30pm 25.9 29.0 21.1 75 3.2 NNW 6 7 3 4 1016.1 1016.0 0.0
20/07:00pm 26.1 29.0 21.1 74 3.3 NNW 7 11 4 6 1015.7 1015.6 0.0
20/06:30pm 26.6 28.8 21.1 72 3.6 N 11 17 6 9 1015.2 1015.1 0.0
20/06:00pm 27.0 28.2 20.6 68 4.2 N 15 22 8 12 1014.8 1014.7 0.0
20/05:30pm 27.2 28.4 19.8 64 4.8 N 13 20 7 11 1014.4 1014.3 0.0
20/05:00pm 27.8 28.2 19.1 59 5.6 NNW 15 24 8 13 1013.8 1013.7 0.0
20/04:30pm 28.8 28.4 18.0 52 6.9 N 17 24 9 13 1013.5 1013.4 0.0
20/04:00pm 29.5 28.4 17.3 47 7.7 N 19 28 10 15 1013.1 1013.0 0.0
20/03:30pm 30.4 29.2 17.1 44 8.4 NNW 19 26 10 14 1012.8 1012.7 0.0
20/03:00pm 31.4 29.6 16.9 41 9.2 NNW 22 33 12 18 1012.4 1012.3 0.0
20/02:30pm 32.7 30.6 14.8 34 11.0 N 19 33 10 18 1012.1 1012.0 0.0
20/02:00pm 33.2 31.3 15.2 33 11.2 NNW 19 28 10 15 1012.0 1011.9 0.0
20/01:30pm 34.7 33.9 16.1 33 11.8 N 15 24 8 13 1012.1 1012.0 0.0
20/01:00pm 34.7 34.3 15.1 31 12.2 NNW 11 19 6 10 1012.3 1012.2 0.0
20/12:30pm 35.6 34.9 14.3 28 13.2 NE 11 22 6 12 1012.9 1012.8 0.0

Other Formats:

Comma delimited format used in spreadsheet applications
http://www.bom.gov.au/fwo/IDW60801/IDW60801.94100.axf

JavaScript Object Notation format (JSON) in row-major order
http://www.bom.gov.au/fwo/IDW60801/IDW60801.94100.json